createdAt,value
2017-11-13T00:01:59.870Z,0.50
2017-11-13T00:04:26.099Z,0.57
2017-11-13T00:06:52.314Z,1.37
2017-11-13T00:09:19.306Z,0.87
2017-11-13T00:11:45.518Z,1.53
2017-11-13T00:14:11.742Z,0.50
2017-11-13T00:16:37.941Z,0.50
2017-11-13T00:19:04.942Z,0.60
2017-11-13T00:21:31.141Z,0.50
2017-11-13T00:23:58.103Z,0.50
2017-11-13T00:26:24.322Z,0.50
2017-11-13T00:28:50.538Z,0.47
2017-11-13T00:31:16.743Z,0.50
2017-11-13T00:33:42.942Z,0.83
2017-11-13T00:36:09.158Z,0.50
2017-11-13T00:38:35.355Z,0.50
2017-11-13T00:41:01.591Z,0.50
2017-11-13T00:43:27.809Z,0.50
2017-11-13T00:45:54.022Z,0.50
2017-11-13T00:48:20.971Z,0.47
2017-11-13T00:50:47.182Z,0.73
2017-11-13T00:53:14.122Z,0.50
2017-11-13T00:55:41.081Z,0.50
2017-11-13T00:58:08.031Z,0.50
2017-11-13T01:00:34.988Z,0.50
2017-11-13T01:03:01.194Z,0.50
2017-11-13T01:05:28.154Z,1.00
2017-11-13T01:07:54.400Z,0.50
2017-11-13T01:10:21.694Z,0.50
2017-11-13T01:12:48.007Z,0.50
2017-11-13T01:15:14.226Z,0.60
2017-11-13T01:17:40.423Z,0.50
2017-11-13T01:20:06.666Z,0.50
2017-11-13T01:22:32.854Z,0.50
2017-11-13T01:24:59.046Z,0.50
2017-11-13T01:27:25.262Z,0.50
2017-11-13T01:29:51.497Z,0.50
2017-11-13T01:32:17.694Z,0.50
2017-11-13T01:34:43.898Z,0.50
2017-11-13T01:37:10.895Z,0.50
2017-11-13T01:39:37.121Z,3.90
2017-11-13T01:42:03.362Z,0.60
2017-11-13T01:44:29.583Z,0.50
2017-11-13T01:46:55.838Z,0.50
2017-11-13T01:49:22.058Z,0.70
2017-11-13T01:51:48.294Z,0.50
2017-11-13T01:54:14.492Z,0.50
2017-11-13T01:56:40.756Z,0.50
2017-11-13T01:59:06.966Z,0.50
2017-11-13T02:01:33.203Z,0.50
2017-11-13T02:03:59.462Z,0.50
2017-11-13T02:06:26.491Z,0.50
2017-11-13T02:08:52.698Z,0.50
2017-11-13T02:11:18.930Z,0.50
2017-11-13T02:13:45.162Z,0.40
2017-11-13T02:16:11.405Z,0.50
2017-11-13T02:18:37.617Z,0.50
2017-11-13T02:21:03.842Z,0.50
2017-11-13T02:23:30.063Z,0.50
2017-11-13T02:25:56.322Z,0.50
2017-11-13T02:28:23.278Z,0.53
2017-11-13T02:30:50.237Z,0.50
2017-11-13T02:33:16.466Z,0.50
2017-11-13T02:35:42.678Z,0.50
2017-11-13T02:38:09.646Z,0.50
2017-11-13T02:40:35.879Z,0.40
2017-11-13T02:43:02.112Z,0.50
2017-11-13T02:45:28.342Z,0.57
2017-11-13T02:47:54.594Z,0.50
2017-11-13T02:50:20.818Z,0.50
2017-11-13T02:52:47.044Z,0.50
2017-11-13T02:55:13.267Z,0.50
2017-11-13T02:57:39.507Z,0.50
2017-11-13T03:00:05.714Z,0.50
2017-11-13T03:02:31.959Z,0.50
2017-11-13T03:04:58.159Z,0.50
2017-11-13T03:07:24.398Z,0.50
2017-11-13T03:09:50.611Z,0.50
2017-11-13T03:12:16.842Z,0.50
2017-11-13T03:14:43.068Z,0.50
2017-11-13T03:17:09.306Z,0.50
2017-11-13T03:19:35.516Z,0.50
2017-11-13T03:22:01.765Z,0.50
2017-11-13T03:24:27.977Z,0.50
2017-11-13T03:26:54.197Z,0.50
2017-11-13T03:29:21.134Z,0.50
2017-11-13T03:31:48.111Z,0.50
2017-11-13T03:34:14.293Z,0.50
2017-11-13T03:36:40.540Z,0.50
2017-11-13T03:39:07.487Z,0.50
2017-11-13T03:41:34.439Z,0.50
2017-11-13T03:44:00.657Z,0.50
2017-11-13T03:46:27.586Z,0.50
2017-11-13T03:48:54.551Z,0.50
2017-11-13T03:51:20.741Z,0.50
2017-11-13T03:53:46.951Z,0.73
2017-11-13T03:56:13.137Z,0.50
2017-11-13T03:58:40.094Z,0.50
2017-11-13T04:01:06.310Z,0.50
2017-11-13T04:03:33.261Z,0.50
2017-11-13T04:05:59.470Z,0.50
2017-11-13T04:08:26.446Z,0.50
2017-11-13T04:10:52.646Z,0.50
2017-11-13T04:13:19.584Z,0.50
2017-11-13T04:15:46.556Z,0.70
2017-11-13T04:18:12.759Z,0.50
2017-11-13T04:20:38.983Z,0.50
2017-11-13T04:23:05.942Z,1.60
2017-11-13T04:25:32.177Z,0.77
2017-11-13T04:27:58.372Z,0.50
2017-11-13T04:30:24.599Z,0.50
2017-11-13T04:32:50.805Z,0.40
2017-11-13T04:35:16.990Z,0.50
2017-11-13T04:37:43.237Z,0.50
2017-11-13T04:40:09.464Z,0.50
2017-11-13T04:42:35.694Z,0.40
2017-11-13T04:45:01.949Z,0.50
2017-11-13T04:47:28.170Z,0.50
2017-11-13T04:49:54.451Z,0.50
2017-11-13T04:52:20.659Z,0.50
2017-11-13T04:54:46.869Z,0.50
2017-11-13T04:57:13.114Z,0.60
2017-11-13T04:59:39.422Z,0.50
2017-11-13T05:02:05.690Z,0.50
2017-11-13T05:04:32.615Z,0.50
2017-11-13T05:06:58.823Z,0.50
2017-11-13T05:09:25.062Z,0.50
2017-11-13T05:11:51.269Z,0.50
2017-11-13T05:14:17.498Z,0.50
2017-11-13T05:16:43.731Z,0.50
2017-11-13T05:19:09.982Z,0.50
2017-11-13T05:21:36.203Z,0.60
2017-11-13T05:24:02.454Z,0.50
2017-11-13T05:26:29.423Z,0.50
2017-11-13T05:28:55.676Z,0.50
2017-11-13T05:31:21.880Z,0.50
2017-11-13T05:33:48.081Z,0.50
2017-11-13T05:36:15.054Z,0.50
2017-11-13T05:38:41.980Z,0.50
2017-11-13T05:41:08.986Z,0.50
2017-11-13T05:43:35.188Z,0.50
2017-11-13T05:46:01.412Z,0.40
2017-11-13T05:48:27.595Z,0.50
2017-11-13T05:50:54.579Z,0.50
2017-11-13T05:53:20.757Z,0.50
2017-11-13T05:55:46.967Z,0.50
2017-11-13T05:58:13.155Z,0.50
2017-11-13T06:00:39.385Z,0.50
2017-11-13T06:03:05.726Z,0.50
2017-11-13T06:05:31.942Z,0.50
2017-11-13T06:07:58.183Z,0.40
2017-11-13T06:10:24.391Z,0.50
2017-11-13T06:12:50.611Z,0.50
2017-11-13T06:15:17.582Z,0.50
2017-11-13T06:17:43.821Z,0.43
2017-11-13T06:20:10.039Z,0.50
2017-11-13T06:22:36.234Z,0.50
2017-11-13T06:25:03.204Z,0.50
2017-11-13T06:27:29.427Z,0.50
2017-11-13T06:29:55.665Z,0.50
2017-11-13T06:32:21.886Z,0.50
2017-11-13T06:34:48.354Z,0.50
2017-11-13T06:37:15.311Z,0.40
2017-11-13T06:39:41.541Z,0.50
2017-11-13T06:42:07.784Z,0.50
2017-11-13T06:44:33.983Z,0.50
2017-11-13T06:47:00.254Z,0.50
2017-11-13T06:49:27.190Z,0.50
2017-11-13T06:51:53.399Z,0.50
2017-11-13T06:54:20.370Z,0.50
2017-11-13T06:56:46.598Z,0.50
2017-11-13T06:59:12.786Z,0.50
2017-11-13T07:01:39.739Z,0.40
2017-11-13T07:04:06.671Z,0.50
2017-11-13T07:06:32.909Z,0.50
2017-11-13T07:08:59.846Z,0.50
2017-11-13T07:11:26.046Z,0.50
2017-11-13T07:13:52.252Z,0.60
2017-11-13T07:16:19.195Z,0.50
2017-11-13T07:18:46.170Z,0.50
2017-11-13T07:21:12.402Z,0.50
2017-11-13T07:23:38.622Z,0.50
2017-11-13T07:26:04.843Z,0.50
2017-11-13T07:28:31.060Z,0.50
2017-11-13T07:30:57.258Z,0.47
2017-11-13T07:33:23.471Z,0.40
2017-11-13T07:35:49.687Z,0.50
2017-11-13T07:38:15.915Z,0.50
2017-11-13T07:40:42.123Z,0.50
2017-11-13T07:43:08.352Z,0.47
2017-11-13T07:45:34.558Z,0.40
2017-11-13T07:48:01.527Z,0.47
2017-11-13T07:50:27.710Z,0.63
2017-11-13T07:52:53.919Z,0.47
2017-11-13T07:55:20.128Z,0.40
2017-11-13T07:57:46.370Z,0.50
2017-11-13T08:00:12.565Z,0.40
2017-11-13T08:02:38.749Z,0.80
2017-11-13T08:05:04.962Z,0.40
2017-11-13T08:07:31.153Z,0.50
2017-11-13T08:09:57.370Z,0.40
2017-11-13T08:12:23.590Z,0.50
2017-11-13T08:14:49.802Z,0.50
2017-11-13T08:17:16.741Z,0.40
2017-11-13T08:19:43.734Z,0.50
2017-11-13T08:22:09.943Z,0.40
2017-11-13T08:24:36.163Z,0.50
2017-11-13T08:27:02.392Z,0.50
2017-11-13T08:29:28.601Z,0.40
2017-11-13T08:31:55.576Z,0.50
2017-11-13T08:34:21.815Z,0.50
2017-11-13T08:36:48.051Z,0.93
2017-11-13T08:39:14.262Z,0.50
2017-11-13T08:41:40.514Z,0.50
2017-11-13T08:44:06.706Z,0.50
2017-11-13T08:46:32.943Z,0.50
2017-11-13T08:48:59.137Z,0.50
2017-11-13T08:51:26.112Z,4.53
2017-11-13T08:53:52.312Z,0.50
2017-11-13T08:56:19.270Z,0.40
2017-11-13T08:58:46.203Z,0.50
2017-11-13T09:01:13.142Z,0.50
2017-11-13T09:03:39.367Z,0.50
2017-11-13T09:06:05.562Z,0.50
2017-11-13T09:08:32.510Z,0.50
2017-11-13T09:10:58.705Z,0.50
2017-11-13T09:13:24.923Z,0.60
2017-11-13T09:15:51.118Z,0.50
2017-11-13T09:18:17.339Z,0.50
2017-11-13T09:20:43.518Z,0.50
2017-11-13T09:23:11.049Z,0.50
2017-11-13T09:25:37.978Z,0.50
2017-11-13T09:28:04.198Z,0.50
2017-11-13T09:30:30.391Z,0.50
2017-11-13T09:32:56.614Z,0.50
2017-11-13T09:35:22.812Z,0.83
2017-11-13T09:37:49.809Z,0.60
2017-11-13T09:40:16.042Z,0.60
2017-11-13T09:42:42.280Z,0.63
2017-11-13T09:45:08.507Z,0.50
2017-11-13T09:47:34.764Z,0.50
2017-11-13T09:50:01.713Z,1.63
2017-11-13T09:52:28.665Z,0.50
2017-11-13T09:54:54.887Z,0.50
2017-11-13T09:57:22.647Z,0.50
2017-11-13T09:59:49.649Z,0.50
2017-11-13T10:02:15.861Z,0.50
2017-11-13T10:04:42.113Z,0.50
2017-11-13T10:07:08.334Z,0.50
2017-11-13T10:09:34.579Z,0.50
2017-11-13T10:12:00.799Z,0.40
2017-11-13T10:14:27.054Z,0.50
2017-11-13T10:16:53.282Z,0.50
2017-11-13T10:19:19.590Z,0.40
2017-11-13T10:21:45.802Z,0.50
2017-11-13T10:24:12.046Z,0.50
2017-11-13T10:26:38.275Z,0.50
2017-11-13T10:29:04.542Z,0.50
2017-11-13T10:31:31.498Z,0.50
2017-11-13T10:33:57.718Z,0.50
2017-11-13T10:36:24.676Z,0.50
2017-11-13T10:38:50.963Z,0.50
2017-11-13T10:41:17.180Z,0.50
2017-11-13T10:43:43.395Z,0.50
2017-11-13T10:46:09.663Z,0.50
2017-11-13T10:48:36.606Z,0.50
2017-11-13T10:51:02.846Z,0.50
2017-11-13T10:53:29.835Z,0.50
2017-11-13T10:55:56.089Z,1.57
2017-11-13T10:58:22.298Z,0.50
2017-11-13T11:00:49.291Z,0.50
2017-11-13T11:03:16.315Z,0.60
2017-11-13T11:05:42.574Z,0.50
2017-11-13T11:08:09.566Z,0.50
2017-11-13T11:10:35.838Z,0.50
2017-11-13T11:13:02.822Z,0.50
2017-11-13T11:15:30.897Z,0.50
2017-11-13T11:18:03.325Z,0.50
2017-11-13T11:20:31.566Z,0.50
2017-11-13T11:23:00.729Z,0.50
2017-11-13T11:25:26.955Z,0.50
2017-11-13T11:27:53.198Z,0.50
2017-11-13T11:30:19.410Z,0.50
2017-11-13T11:32:45.650Z,0.50
2017-11-13T11:35:17.870Z,0.50
2017-11-13T11:37:54.926Z,0.50
2017-11-13T11:40:21.173Z,0.50
2017-11-13T11:42:47.419Z,0.50
2017-11-13T11:45:14.425Z,0.50
2017-11-13T11:47:46.774Z,0.50
2017-11-13T11:50:13.002Z,0.50
2017-11-13T11:52:39.246Z,0.43
2017-11-13T11:58:08.164Z,0.50
2017-11-13T12:00:35.464Z,0.47
2017-11-13T12:03:02.446Z,0.50
2017-11-13T12:05:28.695Z,0.50
2017-11-13T12:07:54.922Z,0.50
2017-11-13T12:10:21.162Z,0.70
2017-11-13T12:12:47.402Z,0.60
2017-11-13T12:15:13.647Z,0.50
2017-11-13T12:17:40.623Z,0.50
2017-11-13T12:20:06.818Z,4.70
2017-11-13T12:22:33.017Z,5.63
2017-11-13T12:24:59.219Z,3.67
2017-11-13T12:27:25.422Z,3.77
2017-11-13T12:29:51.632Z,3.30
2017-11-13T12:32:18.594Z,4.13
2017-11-13T12:34:45.533Z,2.53
2017-11-13T12:37:11.735Z,3.87
2017-11-13T12:39:37.991Z,1.60
2017-11-13T12:42:04.182Z,2.70
2017-11-13T12:44:30.402Z,2.33
2017-11-13T12:46:56.605Z,3.27
2017-11-13T12:49:23.859Z,1.70
2017-11-13T12:51:50.062Z,3.63
2017-11-13T12:54:16.319Z,1.70
2017-11-13T12:56:42.527Z,6.73
2017-11-13T12:59:08.787Z,2.90
2017-11-13T13:01:34.994Z,4.10
2017-11-13T13:04:01.215Z,4.67
2017-11-13T13:06:27.423Z,3.87
2017-11-13T13:08:54.391Z,6.20
2017-11-13T13:11:20.592Z,1.63
2017-11-13T13:13:47.558Z,3.43
2017-11-13T13:16:13.764Z,2.10
2017-11-13T13:18:40.738Z,3.57
2017-11-13T13:21:06.924Z,6.37
2017-11-13T13:23:33.120Z,3.77
2017-11-13T13:25:59.331Z,1.93
2017-11-13T13:28:25.547Z,3.53
2017-11-13T13:30:51.755Z,1.17
2017-11-13T13:33:18.698Z,2.80
2017-11-13T13:35:45.663Z,2.77
2017-11-13T13:38:11.843Z,4.00
2017-11-13T13:40:38.178Z,1.60
2017-11-13T13:43:04.367Z,1.47
2017-11-13T13:45:30.570Z,2.30
2017-11-13T13:47:56.759Z,1.37
2017-11-13T13:50:22.982Z,1.50
2017-11-13T13:52:49.179Z,2.07
2017-11-13T13:55:15.438Z,1.20
2017-11-13T13:57:41.667Z,3.10
2017-11-13T14:00:07.858Z,1.10
2017-11-13T14:02:34.082Z,1.10
2017-11-13T14:05:00.290Z,2.13
2017-11-13T14:07:26.502Z,3.70
2017-11-13T14:09:53.426Z,2.20
2017-11-13T14:12:19.650Z,1.20
2017-11-13T14:14:45.863Z,2.43
2017-11-13T14:17:12.096Z,1.70
2017-11-13T14:19:38.282Z,1.67
2017-11-13T14:22:04.518Z,1.40
2017-11-13T14:24:30.707Z,1.17
2017-11-13T14:26:56.918Z,2.70
2017-11-13T14:29:23.126Z,1.63
2017-11-13T14:31:49.366Z,1.20
2017-11-13T14:34:15.555Z,2.20
2017-11-13T14:36:41.784Z,1.43
2017-11-13T14:39:08.004Z,2.60
2017-11-13T14:41:34.322Z,2.13
2017-11-13T14:44:01.275Z,1.03
2017-11-13T14:46:27.503Z,1.70
2017-11-13T14:48:53.694Z,3.50
2017-11-13T14:51:19.911Z,1.47
2017-11-13T14:53:46.130Z,2.30
2017-11-13T14:56:12.328Z,1.87
2017-11-13T14:58:38.542Z,1.47
2017-11-13T15:01:04.730Z,1.80
2017-11-13T15:03:30.979Z,3.43
2017-11-13T15:05:57.923Z,2.00
2017-11-13T15:08:24.891Z,2.20
2017-11-13T15:10:51.087Z,2.40
2017-11-13T15:13:18.078Z,3.23
2017-11-13T15:15:44.294Z,5.77
2017-11-13T15:18:10.515Z,9.30
2017-11-13T15:20:36.718Z,4.23
2017-11-13T15:23:02.930Z,1.50
2017-11-13T15:25:29.133Z,1.50
2017-11-13T15:27:55.354Z,1.73
2017-11-13T15:30:22.613Z,2.07
2017-11-13T15:32:48.879Z,3.10
2017-11-13T15:35:15.074Z,1.33
2017-11-13T15:37:41.294Z,1.97
2017-11-13T15:40:07.541Z,2.93
2017-11-13T15:42:33.762Z,2.00
2017-11-13T15:44:59.986Z,3.63
2017-11-13T15:47:26.281Z,1.63
2017-11-13T15:49:52.486Z,5.00
2017-11-13T15:52:19.500Z,1.50
2017-11-13T15:54:45.759Z,1.53
2017-11-13T15:57:12.740Z,2.40
2017-11-13T15:59:38.984Z,1.90
2017-11-13T16:02:05.319Z,2.80
2017-11-13T16:04:31.566Z,2.30
2017-11-13T16:06:57.806Z,1.60
2017-11-13T16:09:23.996Z,1.60
2017-11-13T16:11:50.211Z,3.53
2017-11-13T16:14:16.422Z,2.53
2017-11-13T16:16:43.384Z,3.23
2017-11-13T16:19:09.602Z,2.90
2017-11-13T16:21:35.835Z,3.17
2017-11-13T16:24:02.109Z,2.93
2017-11-13T16:26:28.298Z,2.30
2017-11-13T16:28:54.549Z,3.50
2017-11-13T16:31:20.769Z,6.83
2017-11-13T16:33:47.000Z,11.07
2017-11-13T16:36:13.206Z,10.17
2017-11-13T16:38:39.411Z,5.93
2017-11-13T16:41:06.430Z,6.13
2017-11-13T16:43:32.644Z,21.80
2017-11-13T16:45:58.874Z,9.33
2017-11-13T16:48:25.107Z,12.80
2017-11-13T16:50:51.334Z,16.87
2017-11-13T16:53:17.527Z,7.13
2017-11-13T16:55:43.722Z,3.50
2017-11-13T16:58:10.686Z,4.33
2017-11-13T17:00:36.899Z,9.37
2017-11-13T17:03:03.885Z,9.40
2017-11-13T17:05:30.092Z,6.83
2017-11-13T17:07:56.323Z,4.70
2017-11-13T17:10:22.528Z,4.70
2017-11-13T17:12:49.496Z,6.37
2017-11-13T17:15:15.791Z,5.20
2017-11-13T17:17:42.990Z,5.60
2017-11-13T17:20:09.195Z,5.83
2017-11-13T17:22:35.411Z,6.63
2017-11-13T17:25:02.425Z,5.50
2017-11-13T17:27:28.653Z,7.23
2017-11-13T17:29:54.913Z,3.90
2017-11-13T17:32:21.901Z,3.30
2017-11-13T17:34:48.994Z,3.00
2017-11-13T17:37:15.192Z,3.53
2017-11-13T17:39:41.434Z,7.33
2017-11-13T17:42:07.638Z,8.70
2017-11-13T17:44:33.990Z,10.57
2017-11-13T17:47:00.208Z,4.53
2017-11-13T17:49:26.411Z,4.53
2017-11-13T17:51:52.657Z,4.43
2017-11-13T17:54:18.884Z,5.00
2017-11-13T17:56:45.135Z,2.80
2017-11-13T17:59:11.331Z,3.37
2017-11-13T18:01:37.591Z,3.47
2017-11-13T18:04:03.846Z,3.20
2017-11-13T18:06:30.086Z,4.63
2017-11-13T18:08:56.330Z,7.37
2017-11-13T18:11:22.529Z,4.70
2017-11-13T18:13:49.556Z,5.30
2017-11-13T18:16:15.793Z,2.80
2017-11-13T18:18:42.039Z,6.60
2017-11-13T18:21:08.998Z,3.87
2017-11-13T18:23:35.227Z,5.10
2017-11-13T18:26:01.423Z,3.93
2017-11-13T18:28:27.621Z,3.20
2017-11-13T18:30:53.842Z,6.80
2017-11-13T18:33:20.026Z,2.93
2017-11-13T18:35:46.277Z,6.03
2017-11-13T18:38:12.467Z,9.13
2017-11-13T18:40:39.446Z,5.60
2017-11-13T18:43:05.674Z,3.30
2017-11-13T18:45:31.890Z,11.43
2017-11-13T18:47:58.095Z,5.93
2017-11-13T18:50:25.074Z,3.87
2017-11-13T18:52:51.287Z,6.80
2017-11-13T18:55:17.522Z,6.77
2017-11-13T18:57:43.710Z,8.30
2017-11-13T19:00:09.910Z,3.70
2017-11-13T19:02:36.246Z,7.77
2017-11-13T19:05:02.466Z,4.03
2017-11-13T19:07:28.690Z,10.23
2017-11-13T19:09:54.882Z,3.30
2017-11-13T19:12:21.835Z,7.13
2017-11-13T19:14:48.042Z,6.07
2017-11-13T19:17:14.970Z,5.90
2017-11-13T19:19:41.190Z,8.03
2017-11-13T19:22:08.126Z,4.77
2017-11-13T19:24:34.373Z,8.23
2017-11-13T19:27:00.579Z,7.67
2017-11-13T19:29:26.823Z,7.93
2017-11-13T19:31:53.032Z,6.00
2017-11-13T19:34:19.260Z,6.80
2017-11-13T19:36:45.541Z,7.03
2017-11-13T19:39:11.754Z,4.80
2017-11-13T19:41:38.729Z,5.37
2017-11-13T19:44:05.007Z,6.93
2017-11-13T19:46:31.387Z,6.87
2017-11-13T19:48:57.875Z,7.80
2017-11-13T19:51:24.964Z,8.13
2017-11-13T19:53:51.365Z,8.07
2017-11-13T19:56:18.490Z,8.07
2017-11-13T19:58:44.949Z,9.73
2017-11-13T20:01:11.472Z,6.50
2017-11-13T20:03:37.985Z,6.13
2017-11-13T20:06:04.480Z,13.73
2017-11-13T20:08:30.982Z,9.43
2017-11-13T20:10:58.378Z,15.00
2017-11-13T20:13:24.799Z,8.70
2017-11-13T20:15:51.135Z,16.77
2017-11-13T20:18:17.503Z,12.10
2017-11-13T20:20:43.800Z,17.03
2017-11-13T20:23:10.168Z,12.63
2017-11-13T20:25:36.443Z,35.70
2017-11-13T20:28:03.430Z,26.67
2017-11-13T20:30:29.657Z,38.97
2017-11-13T20:32:55.873Z,9.70
2017-11-13T20:35:22.133Z,23.07
2017-11-13T20:37:48.342Z,11.00
2017-11-13T20:40:14.586Z,7.43
2017-11-13T20:42:40.861Z,14.02
2017-11-13T20:45:07.815Z,17.77
2017-11-13T20:47:34.769Z,17.27
2017-11-13T20:50:00.973Z,8.97
2017-11-13T20:52:27.177Z,10.87
2017-11-13T20:54:53.428Z,9.00
2017-11-13T20:57:20.402Z,12.07
2017-11-13T20:59:46.631Z,9.90
2017-11-13T21:02:12.866Z,6.47
2017-11-13T21:04:39.139Z,8.20
2017-11-13T21:07:05.330Z,6.47
2017-11-13T21:09:31.546Z,9.13
2017-11-13T21:11:57.746Z,10.87
2017-11-13T21:14:24.717Z,11.20
2017-11-13T21:16:50.928Z,11.30
2017-11-13T21:19:17.906Z,15.90
2017-11-13T21:21:44.168Z,9.70
2017-11-13T21:24:10.422Z,11.80
2017-11-13T21:26:36.623Z,18.33
2017-11-13T21:29:02.864Z,13.60
2017-11-13T21:31:29.078Z,12.80
2017-11-13T21:33:55.311Z,13.03
2017-11-13T21:36:21.562Z,9.33
2017-11-13T21:38:48.538Z,9.10
2017-11-13T21:41:14.770Z,8.32
2017-11-13T21:43:41.030Z,10.45
2017-11-13T21:46:07.349Z,9.63
2017-11-13T21:48:33.574Z,13.43
2017-11-13T21:50:59.795Z,10.88
2017-11-13T21:53:26.014Z,9.77
2017-11-13T21:55:52.210Z,12.48
2017-11-13T21:58:19.235Z,7.43
2017-11-13T22:00:45.442Z,11.00
2017-11-13T22:03:11.679Z,9.18
2017-11-13T22:05:37.873Z,23.20
2017-11-13T22:08:04.087Z,20.13
2017-11-13T22:10:30.299Z,24.98
2017-11-13T22:12:57.264Z,16.90
2017-11-13T22:15:23.468Z,9.65
2017-11-13T22:17:50.460Z,18.93
2017-11-13T22:20:16.659Z,18.80
2017-11-13T22:22:42.875Z,24.00
2017-11-13T22:25:09.818Z,9.50
2017-11-13T22:27:36.790Z,13.90
2017-11-13T22:30:03.009Z,12.77
2017-11-13T22:32:29.211Z,18.87
2017-11-13T22:34:56.181Z,20.58
2017-11-13T22:37:22.423Z,14.67
2017-11-13T22:39:48.661Z,11.70
2017-11-13T22:42:14.856Z,12.97
2017-11-13T22:44:41.815Z,20.67
2017-11-13T22:47:08.003Z,13.50
2017-11-13T22:49:34.226Z,23.60
2017-11-13T22:52:00.418Z,15.63
2017-11-13T22:54:26.642Z,15.00
2017-11-13T22:56:52.836Z,9.80
2017-11-13T22:59:19.037Z,21.67
2017-11-13T23:01:45.238Z,16.93
2017-11-13T23:04:11.478Z,10.20
2017-11-13T23:06:37.693Z,9.43
2017-11-13T23:09:03.946Z,8.97
2017-11-13T23:11:30.131Z,10.83
2017-11-13T23:13:56.358Z,9.02
2017-11-13T23:16:22.557Z,17.17
2017-11-13T23:18:49.514Z,24.13
2017-11-13T23:21:16.457Z,13.20
2017-11-13T23:23:43.415Z,13.23
2017-11-13T23:26:09.608Z,9.00
2017-11-13T23:28:36.578Z,8.10
2017-11-13T23:31:02.777Z,12.13
2017-11-13T23:33:28.996Z,13.40
2017-11-13T23:35:55.211Z,8.10
2017-11-13T23:38:21.466Z,8.60
2017-11-13T23:40:48.453Z,8.55
2017-11-13T23:43:14.736Z,10.07
2017-11-13T23:45:40.938Z,18.10
2017-11-13T23:48:07.158Z,11.03
2017-11-13T23:50:33.429Z,13.10
2017-11-13T23:52:59.646Z,6.90
2017-11-13T23:55:25.877Z,12.33
2017-11-13T23:57:52.107Z,9.43
